• Join FlightAware (Why Join?)
  • Login
  • US Flag 
04:31AM EDT


 

Airport Tracker/Info


-or-


 

Live Flight TrackerFlight Track Log ✈ N877PM ✈ 17-Dec-2013 ✈ KCID - KIXD

Flight Track Log - Related Links

Times and Time Zones

All times are in EST time to prevent confusion due to time zone crossing. See the N877PM flight status page for this flight to view local times or setup timezone preferences in your user account.

Time Position Orientation Groundspeed Altitude Reporting Facility
EST Latitude Longitude Course Direction KTS MPH feet Rate Location/Type
08:32AM 41.8622 -91.7644 217° Southwest 179 206 4,500  Level Chicago Center
08:33AM 41.8367 -91.8211 239° Southwest 178 205 8,400 2,700 Climbing Chicago Center
08:34AM 41.7908 -91.8658 216° Southwest 206 237 10,100 2,100 Climbing Chicago Center
08:35AM 41.7344 -91.9183 215° Southwest 240 276 12,800 2,700 Climbing Chicago Center
08:36AM 41.6694 -91.9847 217° Southwest 246 283 15,700 2,580 Climbing Chicago Center
08:37AM 41.2707 -92.3813 217° Southwest  Level Estimated
08:37AM 41.6108 -92.0375 214° Southwest 252 290 18,200  Level Chicago Center
08:38AM 41.5594 -92.0894 217° Southwest 240 276 20,500 2,040 Climbing Chicago Center
08:39AM 41.5044 -92.1417 215° Southwest 241 277 22,500 1,200 Climbing Chicago Center
08:40AM 41.4444 -92.1997 216° Southwest 261 300 23,000 240 Climbing Chicago Center
08:41AM 41.3717 -92.2697 216° Southwest 316 364 23,000 360 Level Chicago Center
08:42AM 41.2775 -92.3575 215° Southwest 341 392 23,800 840 Climbing Chicago Center
08:43AM 41.2017 -92.4289 215° Southwest 342 394 24,800 960 Climbing Chicago Center
08:44AM 41.1283 -92.4997 216° Southwest 333 383 25,800 540 Climbing Chicago Center
08:45AM 41.0519 -92.5686 214° Southwest 333 383 26,000 60 Climbing Chicago Center
08:46AM 40.9719 -92.6453 216° Southwest 351 404 26,000  Level Chicago Center
08:47AM 40.8742 -92.7386 216° Southwest 363 418 26,000  Level Chicago Center
08:48AM 40.7925 -92.8136 215° Southwest 363 418 26,000  Level Chicago Center
08:49AM 40.7114 -92.8906 216° Southwest 363 418 26,000  Level Chicago Center
08:50AM 40.6319 -92.9636 215° Southwest 356 410 26,000  Level Chicago Center
08:51AM 40.5856 -93.0075 216° Southwest 354 407 26,000  Level Kansas City Center
08:52AM 40.5086 -93.0803 216° Southwest 350 403 26,000  Level Kansas City Center
08:53AM 40.4292 -93.1533 215° Southwest 351 404 26,000 -720 Level Kansas City Center
08:54AM 40.3344 -93.2403 215° Southwest 352 405 24,600 -1,680 Descending Kansas City Center
08:55AM 40.2581 -93.3092 215° Southwest 342 394 22,700 -1,680 Descending Kansas City Center
08:56AM 40.1853 -93.3764 215° Southwest 328 377 21,100 -1,680 Descending Kansas City Center
08:57AM 40.1125 -93.4417 214° Southwest 322 371 19,300 -1,620 Descending Kansas City Center
08:58AM 40.0375 -93.5128 216° Southwest 331 381 17,900 -1,440 Descending Kansas City Center
08:59AM 39.9422 -93.5978 214° Southwest 345 397 16,400 -1,500 Descending Kansas City Center
09:00AM 39.8689 -93.6619 214° Southwest 330 380 14,800 -1,500 Descending Kansas City Center
09:01AM 39.7972 -93.7267 215° Southwest 320 368 13,400 -1,380 Descending Kansas City Center
09:02AM 39.7242 -93.7922 215° Southwest 308 354 12,100 -720 Descending Kansas City Center
09:03AM 39.6536 -93.8547 214° Southwest 318 366 12,000 -60 Descending Kansas City Center
09:04AM 39.5997 -93.9386 230° Southwest 265 305 12,000  Level Kansas City Center
09:05AM 39.5611 -94.0119 236° Southwest 257 296 12,000 -600 Level Kansas City Center
09:06AM 39.5078 -94.0883 228° Southwest 253 291 10,800 -1,020 Descending Kansas City Center
09:07AM 39.4517 -94.1544 222° Southwest 278 320 10,000 -900 Descending Kansas City Center
09:08AM 39.3986 -94.2178 223° Southwest 272 313 9,000 -1,140 Descending Kansas City Center
09:09AM 39.3394 -94.2892 223° Southwest 262 302 7,700 -1,320 Descending Kansas City Center
09:10AM 39.2675 -94.3108 193° South 281 323 6,300 -1,320 Descending Kansas City Center
09:11AM 39.1806 -94.3297 190° South 282 325 5,100 -600 Descending Kansas City Center
09:12AM 39.1111 -94.3556 196° South 274 315 5,100 -60 Level Kansas City Center
09:14AM 39.0533 -94.4094 216° Southwest 267 307 5,000 -420 Descending Kansas City Center
09:15AM 38.9861 -94.4683 214° Southwest 262 302 4,300 -480 Descending Kansas City Center
09:16AM 38.9375 -94.5203 220° Southwest 239 275 4,000 -180 Descending Kansas City Center
09:17AM 38.8978 -94.5925 235° Southwest 223 257 4,000  Level Kansas City Center
09:18AM 38.8639 -94.6589 237° Southwest 229 264 4,000 -360 Level Kansas City Center
09:19AM 38.8283 -94.7239 235° Southwest 230 265 3,300 -480 Descending Kansas City Center
09:20AM 38.8000 -94.7811 238° Southwest 176 203 3,000 -540 Descending Kansas City Center
09:21AM 38.7989 -94.8311 268° West 147 169 2,200 -600 Descending Kansas City Center
09:22AM 38.7950 -94.8739 263° West 106 122 1,800 -480 Descending Kansas City Center
09:23AM 38.8081 -94.8922 312° West 87 100 1,300 -360 Descending Kansas City Center
09:24AM 38.8306 -94.8897 North 84 97 1,100 -240 Descending Kansas City Center